KBRO/BRO METAR and TAF weather

Enter ICAO airport designator
Station Type Date Time Source
KBRO METAR 2019/12/12 11:53 UTC NOAA

KBRO 121153Z 31007KT 10SM CLR 09/06 A3025 RMK AO2 SLP242 T00890061 10106 20083 56013


Station Type Date Time Source
KBRO Decoded METAR 2019/12/12 11:53 UTC NOAA

BROWNSVILLE/SOUTH PADRE IS, TX, United States (KBRO) 25-54N 97-25W 5M
Dec 12, 2019 - 06:53 AM EST / 2019.12.12 1153 UTC
Wind: from the NW (310 degrees) at 8 MPH (7 KT):0
Visibility: 10 mile(s):0
Sky conditions: clear
Temperature: 48.0 F (8.9 C)
Dew Point: 43.0 F (6.1 C)
Relative Humidity: 82%
Pressure (altimeter): 30.25 in. Hg (1024 hPa)
Pressure tendency: 0.04 inches (1.3 hPa) lower than three hours ago
ob: KBRO 121153Z 31007KT 10SM CLR 09/06 A3025 RMK AO2 SLP242 T00890061 10106 20083 56013
cycle: 12

Station Type Date Time Source
KBRO TAF 2019/12/12 12:22 UTC NOAA

TAF KBRO 121120Z 1212/1312 34005KT P6SM BKN050
FM130600 VRB03KT 4SM BR SCT009
FM130900 VRB03KT 1SM BR SCT009

Example: see airport list